Time;durP1;ratioP1;P1;durP2;ratioP2;P2;SDS_P1;SDS_P2;PMS_P1;PMS_P2;Temp;Humidity;BMP_temperature;BMP_pressure;BME280_temperature;BME280_humidity;BME280_pressure;Samples;Min_cycle;Max_cycle;Signal;HPM_P1;HPM_P2
2023/03/23 00:01:02;;;;;;;;;;;;;;;;;;5104385;28;20320;-62
2023/03/23 00:03:34;;;;;;;;;;;;;;;;;;5110261;27;19975;-62
2023/03/23 00:06:05;;;;;;;;;;;;;;;;;;5098875;28;19923;-62
2023/03/23 00:08:31;;;;;;;;;;;;;;;;;;5110071;28;19923;-62
2023/03/23 00:10:57;;;;;;;;;;;;;;;;;;5115873;27;19924;-62
2023/03/23 00:13:23;;;;;;;;;;;;;;;;;;5113980;28;19924;-62
2023/03/23 00:15:51;;;;;;;;;;;;;;;;;;5114169;28;20345;-62
2023/03/23 00:18:22;;;;;;;;;;;;;;;;;;5128449;27;19932;-63
2023/03/23 00:20:48;;;;;;;;;;;;;;;;;;5118307;27;20265;-63
2023/03/23 00:23:18;;;;;;;;;;;;;;;;;;5113534;28;19919;-63
2023/03/23 00:25:44;;;;;;;;;;;;;;;;;;5084050;28;19920;-63
2023/03/23 00:28:12;;;;;;;;;;;;;;;;;;5103284;28;19924;-63
2023/03/23 00:30:38;;;;;;;;;;;;;;;;;;5115684;27;20416;-62
2023/03/23 00:33:04;;;;;;;;;;;;;;;;;;5132904;27;20014;-62
2023/03/23 00:35:30;;;;;;;;;;;;;;;;;;5134252;27;20015;-62
2023/03/23 00:37:58;;;;;;;;;;;;;;;;;;5099869;28;20553;-62
2023/03/23 00:40:24;;;;;;;;;;;;;;;;;;5113322;28;19962;-62
2023/03/23 00:42:50;;;;;;;;;;;;;;;;;;5114821;28;19955;-62
2023/03/23 00:45:16;;;;;;;;;;;;;;;;;;5112508;28;20328;-62
2023/03/23 00:47:46;;;;;;;;;;;;;;;;;;5115373;27;19966;-63
2023/03/23 00:50:13;;;;;;;;;;;;;;;;;;5095065;28;20007;-62
2023/03/23 00:52:39;;;;;;;;;;;;;;;;;;5094563;28;19928;-63
2023/03/23 00:55:05;;;;;;;;;;;;;;;;;;5112027;28;19935;-63
2023/03/23 00:57:31;;;;;;;;;;;;;;;;;;5089928;28;19920;-63
2023/03/23 00:59:57;;;;;;;;;;;;;;;;;;5093353;28;20363;-63
2023/03/23 01:02:24;;;;;;;;;;;;;;;;;;5093503;28;19976;-63
2023/03/23 01:04:51;;;;;;;;;;;;;;;;;;5093158;28;19924;-63
2023/03/23 01:07:17;;;;;;;;;;;;;;;;;;5093104;28;20019;-63
2023/03/23 01:09:44;;;;;;;;;;;;;;;;;;5093169;28;19960;-63
2023/03/23 01:12:10;;;;;;;;;;;;;;;;;;5100150;28;20433;-63
2023/03/23 01:14:36;;;;;;;;;;;;;;;;;;5107707;28;19920;-63
2023/03/23 01:17:02;;;;;;;;;;;;;;;;;;5093003;28;19920;-63
2023/03/23 01:19:28;;;;;;;;;;;;;;;;;;5086750;28;19929;-63
2023/03/23 01:21:54;;;;;;;;;;;;;;;;;;5065627;28;19920;-63
2023/03/23 01:24:20;;;;;;;;;;;;;;;;;;5104235;28;20357;-63
2023/03/23 01:26:46;;;;;;;;;;;;;;;;;;5094992;28;20000;-63
2023/03/23 01:29:12;;;;;;;;;;;;;;;;;;5096917;28;19981;-63
2023/03/23 01:31:38;;;;;;;;;;;;;;;;;;5091170;28;19928;-63
2023/03/23 01:34:04;;;;;;;;;;;;;;;;;;5092724;28;19924;-64
2023/03/23 01:36:32;;;;;;;;;;;;;;;;;;5089902;28;20265;-64
2023/03/23 01:38:58;;;;;;;;;;;;;;;;;;5066809;28;20000;-64
2023/03/23 01:41:24;;;;;;;;;;;;;;;;;;5075100;28;20010;-64
2023/03/23 01:43:50;;;;;;;;;;;;;;;;;;5105771;28;19920;-64
2023/03/23 01:46:16;;;;;;;;;;;;;;;;;;5108158;28;19919;-64
2023/03/23 01:48:42;;;;;;;;;;;;;;;;;;5086691;28;19931;-64
2023/03/23 01:51:08;;;;;;;;;;;;;;;;;;5086252;28;19925;-64
2023/03/23 01:53:34;;;;;;;;;;;;;;;;;;5074175;28;19994;-64
2023/03/23 01:56:00;;;;;;;;;;;;;;;;;;5092477;28;19923;-63
2023/03/23 01:58:27;;;;;;;;;;;;;;;;;;5089700;28;19934;-63
2023/03/23 02:00:53;;;;;;;;;;;;;;;;;;5106700;28;19920;-64
2023/03/23 02:03:19;;;;;;;;;;;;;;;;;;5089939;28;19958;-63
2023/03/23 02:05:45;;;;;;;;;;;;;;;;;;5092209;28;19924;-63
2023/03/23 02:08:12;;;;;;;;;;;;;;;;;;5100848;28;19920;-63
2023/03/23 02:10:38;;;;;;;;;;;;;;;;;;5095021;28;19924;-63
2023/03/23 02:13:04;;;;;;;;;;;;;;;;;;5124698;28;19930;-63
2023/03/23 02:15:30;;;;;;;;;;;;;;;;;;5112228;28;19920;-63
2023/03/23 02:17:56;;;;;;;;;;;;;;;;;;5117912;28;19947;-63
2023/03/23 02:20:22;;;;;;;;;;;;;;;;;;5128727;28;19920;-63
2023/03/23 02:22:48;;;;;;;;;;;;;;;;;;5109153;28;19920;-63
2023/03/23 02:25:14;;;;;;;;;;;;;;;;;;5109582;28;19920;-63
2023/03/23 02:27:41;;;;;;;;;;;;;;;;;;5115796;28;20418;-63
2023/03/23 02:30:07;;;;;;;;;;;;;;;;;;5115315;28;19919;-63
2023/03/23 02:32:33;;;;;;;;;;;;;;;;;;5131803;27;20010;-63
2023/03/23 02:34:59;;;;;;;;;;;;;;;;;;5115475;28;20030;-63
2023/03/23 02:37:25;;;;;;;;;;;;;;;;;;5094006;28;20381;-63
2023/03/23 02:39:51;;;;;;;;;;;;;;;;;;5113658;28;19931;-63
2023/03/23 02:42:17;;;;;;;;;;;;;;;;;;5109196;27;19923;-63
2023/03/23 02:44:42;;;;;;;;;;;;;;;;;;5136878;27;19920;-63
2023/03/23 02:47:08;;;;;;;;;;;;;;;;;;5119251;27;20603;-63
2023/03/23 02:49:35;;;;;;;;;;;;;;;;;;5103954;28;19926;-63
2023/03/23 02:52:01;;;;;;;;;;;;;;;;;;5098417;27;20018;-63
2023/03/23 02:54:26;;;;;;;;;;;;;;;;;;5136813;27;20010;-63
2023/03/23 02:56:52;;;;;;;;;;;;;;;;;;5133407;27;19933;-63
2023/03/23 02:59:18;;;;;;;;;;;;;;;;;;5122984;27;20015;-63
2023/03/23 03:01:44;;;;;;;;;;;;;;;;;;5126390;27;19927;-63
2023/03/23 03:04:12;;;;;;;;;;;;;;;;;;5124445;27;20009;-63
2023/03/23 03:06:39;;;;;;;;;;;;;;;;;;5114228;28;20102;-63
2023/03/23 03:09:06;;;;;;;;;;;;;;;;;;5126564;27;19924;-63
2023/03/23 03:11:32;;;;;;;;;;;;;;;;;;5122599;27;19972;-63
2023/03/23 03:13:59;;;;;;;;;;;;;;;;;;5113880;28;19934;-63
2023/03/23 03:16:25;;;;;;;;;;;;;;;;;;5100835;27;19930;-63
2023/03/23 03:18:50;;;;;;;;;;;;;;;;;;5135487;27;19919;-63
2023/03/23 03:21:16;;;;;;;;;;;;;;;;;;5127178;27;20006;-63
2023/03/23 03:23:42;;;;;;;;;;;;;;;;;;5122444;27;19927;-63
2023/03/23 03:26:09;;;;;;;;;;;;;;;;;;5094661;28;19930;-63
2023/03/23 03:28:35;;;;;;;;;;;;;;;;;;5110875;28;19978;-63
2023/03/23 03:31:01;;;;;;;;;;;;;;;;;;5114712;28;20006;-63
2023/03/23 03:33:27;;;;;;;;;;;;;;;;;;5108213;28;20463;-63
2023/03/23 03:35:53;;;;;;;;;;;;;;;;;;5092967;28;19960;-63
2023/03/23 03:38:19;;;;;;;;;;;;;;;;;;5117203;27;19942;-63
2023/03/23 03:40:45;;;;;;;;;;;;;;;;;;5123697;27;19928;-63
2023/03/23 03:43:11;;;;;;;;;;;;;;;;;;5119652;27;20394;-63
2023/03/23 03:45:37;;;;;;;;;;;;;;;;;;5098754;27;19954;-63
2023/03/23 03:48:03;;;;;;;;;;;;;;;;;;5113116;28;19924;-63
2023/03/23 03:50:29;;;;;;;;;;;;;;;;;;5132354;27;19962;-63
2023/03/23 03:52:55;;;;;;;;;;;;;;;;;;5128099;27;20266;-63
2023/03/23 03:55:21;;;;;;;;;;;;;;;;;;5130717;27;20356;-63
2023/03/23 03:57:48;;;;;;;;;;;;;;;;;;5116186;27;19920;-63
2023/03/23 04:00:16;;;;;;;;;;;;;;;;;;5111146;28;19923;-63
2023/03/23 04:02:42;;;;;;;;;;;;;;;;;;5122624;27;19919;-63
2023/03/23 04:05:09;;;;;;;;;;;;;;;;;;5093148;28;20278;-63
2023/03/23 04:07:37;;;;;;;;;;;;;;;;;;5104324;28;19923;-63
2023/03/23 04:10:04;;;;;;;;;;;;;;;;;;5118305;27;19930;-63
2023/03/23 04:12:30;;;;;;;;;;;;;;;;;;5114164;28;19947;-63
2023/03/23 04:14:56;;;;;;;;;;;;;;;;;;5126854;27;19924;-63
2023/03/23 04:17:21;;;;;;;;;;;;;;;;;;5113952;28;19972;-63
2023/03/23 04:19:48;;;;;;;;;;;;;;;;;;5113523;28;19924;-63
2023/03/23 04:22:16;;;;;;;;;;;;;;;;;;5066653;28;20003;-63
2023/03/23 04:24:42;;;;;;;;;;;;;;;;;;5126972;27;19926;-63
2023/03/23 04:27:08;;;;;;;;;;;;;;;;;;5133384;27;19930;-63
2023/03/23 04:29:34;;;;;;;;;;;;;;;;;;5101326;28;19919;-63
2023/03/23 04:32:01;;;;;;;;;;;;;;;;;;5112770;28;19926;-62
2023/03/23 04:34:27;;;;;;;;;;;;;;;;;;5129319;27;19924;-62
2023/03/23 04:36:53;;;;;;;;;;;;;;;;;;5116176;27;20030;-63
2023/03/23 04:39:19;;;;;;;;;;;;;;;;;;5112747;28;19923;-63
2023/03/23 04:41:46;;;;;;;;;;;;;;;;;;5092231;28;19920;-63
2023/03/23 04:44:17;;;;;;;;;;;;;;;;;;5078136;28;19924;-63
2023/03/23 04:46:45;;;;;;;;;;;;;;;;;;5095398;28;19926;-62
2023/03/23 04:49:11;;;;;;;;;;;;;;;;;;5124413;27;19920;-63
2023/03/23 04:51:39;;;;;;;;;;;;;;;;;;5126734;27;20334;-62
2023/03/23 04:54:04;;;;;;;;;;;;;;;;;;5126240;27;19947;-62
2023/03/23 04:56:30;;;;;;;;;;;;;;;;;;5093845;27;20256;-63
2023/03/23 04:58:56;;;;;;;;;;;;;;;;;;5117374;27;19919;-62
2023/03/23 05:01:22;;;;;;;;;;;;;;;;;;5114631;27;19981;-62
2023/03/23 05:03:49;;;;;;;;;;;;;;;;;;5103003;28;20441;-63
2023/03/23 05:06:14;;;;;;;;;;;;;;;;;;5113613;28;20413;-63
2023/03/23 05:08:40;;;;;;;;;;;;;;;;;;5095252;28;19927;-63
2023/03/23 05:11:06;;;;;;;;;;;;;;;;;;5107514;28;19920;-63
2023/03/23 05:13:32;;;;;;;;;;;;;;;;;;5107481;28;19988;-62
2023/03/23 05:15:58;;;;;;;;;;;;;;;;;;5078142;28;19919;-63
2023/03/23 05:18:26;;;;;;;;;;;;;;;;;;5095490;28;19927;-63
2023/03/23 05:20:52;;;;;;;;;;;;;;;;;;5113593;28;19920;-63
2023/03/23 05:23:20;;;;;;;;;;;;;;;;;;5113709;28;19965;-63
2023/03/23 05:25:47;;;;;;;;;;;;;;;;;;5113562;28;19920;-63
2023/03/23 05:28:13;;;;;;;;;;;;;;;;;;5112236;28;19927;-63
2023/03/23 05:30:39;;;;;;;;;;;;;;;;;;5111697;28;19920;-63
2023/03/23 05:33:05;;;;;;;;;;;;;;;;;;5113201;28;20293;-63
2023/03/23 05:35:30;;;;;;;;;;;;;;;;;;5112778;28;20001;-63
2023/03/23 05:37:56;;;;;;;;;;;;;;;;;;5094598;28;20332;-63
2023/03/23 05:40:23;;;;;;;;;;;;;;;;;;5112888;28;19920;-63
2023/03/23 05:42:49;;;;;;;;;;;;;;;;;;5112280;28;19926;-63
2023/03/23 05:45:16;;;;;;;;;;;;;;;;;;5112286;28;20420;-63
2023/03/23 05:47:42;;;;;;;;;;;;;;;;;;5112975;28;20406;-63
2023/03/23 05:50:08;;;;;;;;;;;;;;;;;;5093381;28;19928;-63
2023/03/23 05:52:35;;;;;;;;;;;;;;;;;;5112896;28;19923;-63
2023/03/23 05:55:01;;;;;;;;;;;;;;;;;;5112543;28;19931;-63
2023/03/23 05:57:27;;;;;;;;;;;;;;;;;;5094753;28;19920;-63
2023/03/23 05:59:53;;;;;;;;;;;;;;;;;;5094202;28;19927;-63
2023/03/23 06:02:19;;;;;;;;;;;;;;;;;;5112821;28;19920;-63
2023/03/23 06:04:45;;;;;;;;;;;;;;;;;;5112830;28;19955;-63
2023/03/23 06:07:14;;;;;;;;;;;;;;;;;;5094550;28;20011;-63
2023/03/23 06:09:40;;;;;;;;;;;;;;;;;;5108357;28;19954;-63
2023/03/23 06:12:06;;;;;;;;;;;;;;;;;;5094174;28;19938;-64
2023/03/23 06:14:33;;;;;;;;;;;;;;;;;;5112711;28;20385;-64
2023/03/23 06:17:02;;;;;;;;;;;;;;;;;;5110593;28;19919;-64
2023/03/23 06:19:28;;;;;;;;;;;;;;;;;;5094815;28;20396;-64
2023/03/23 06:21:54;;;;;;;;;;;;;;;;;;5111286;28;19935;-62
2023/03/23 06:24:21;;;;;;;;;;;;;;;;;;5111943;28;19919;-63
2023/03/23 06:26:47;;;;;;;;;;;;;;;;;;5093693;28;19952;-63
2023/03/23 06:29:13;;;;;;;;;;;;;;;;;;5111922;28;19920;-62
2023/03/23 06:31:39;;;;;;;;;;;;;;;;;;5111931;28;20426;-62
2023/03/23 06:34:05;;;;;;;;;;;;;;;;;;5089080;28;19924;-62
2023/03/23 06:36:31;;;;;;;;;;;;;;;;;;5094712;28;19920;-63
2023/03/23 06:38:57;;;;;;;;;;;;;;;;;;5110513;28;19974;-64
2023/03/23 06:41:23;;;;;;;;;;;;;;;;;;5109421;28;19962;-64
2023/03/23 06:43:49;;;;;;;;;;;;;;;;;;5111069;28;19942;-63
2023/03/23 06:46:15;;;;;;;;;;;;;;;;;;5092834;28;19979;-63
2023/03/23 06:48:41;;;;;;;;;;;;;;;;;;5109778;28;19951;-63
2023/03/23 06:51:07;;;;;;;;;;;;;;;;;;5111433;28;19962;-63
2023/03/23 06:53:33;;;;;;;;;;;;;;;;;;5093806;28;20322;-64
2023/03/23 06:55:59;;;;;;;;;;;;;;;;;;5111835;28;19998;-64
2023/03/23 06:58:25;;;;;;;;;;;;;;;;;;5103166;28;19950;-62
2023/03/23 07:00:50;;;;;;;;;;;;;;;;;;5107810;28;20010;-63
2023/03/23 07:03:16;;;;;;;;;;;;;;;;;;5111895;28;19970;-63
2023/03/23 07:05:42;;;;;;;;;;;;;;;;;;5089895;28;19924;-63
2023/03/23 07:08:08;;;;;;;;;;;;;;;;;;5111201;28;19927;-63
2023/03/23 07:10:34;;;;;;;;;;;;;;;;;;5075958;28;20416;-63
2023/03/23 07:13:00;;;;;;;;;;;;;;;;;;5095441;28;20065;-63
2023/03/23 07:15:26;;;;;;;;;;;;;;;;;;5099253;28;19927;-62
2023/03/23 07:17:54;;;;;;;;;;;;;;;;;;5095366;28;19924;-64
2023/03/23 07:20:20;;;;;;;;;;;;;;;;;;5091847;28;20019;-63
2023/03/23 07:22:46;;;;;;;;;;;;;;;;;;5114448;28;19924;-63
2023/03/23 07:25:11;;;;;;;;;;;;;;;;;;5112738;28;20345;-63
2023/03/23 07:27:38;;;;;;;;;;;;;;;;;;5095542;28;19977;-64
2023/03/23 07:30:04;;;;;;;;;;;;;;;;;;5094333;28;19924;-63
2023/03/23 07:32:29;;;;;;;;;;;;;;;;;;5113778;28;20437;-63
2023/03/23 07:34:56;;;;;;;;;;;;;;;;;;5095401;28;19919;-63
2023/03/23 07:37:22;;;;;;;;;;;;;;;;;;5114825;28;19920;-63
2023/03/23 07:39:48;;;;;;;;;;;;;;;;;;5094824;28;19926;-63
2023/03/23 07:42:14;;;;;;;;;;;;;;;;;;5079502;28;19994;-63
2023/03/23 07:44:40;;;;;;;;;;;;;;;;;;5115601;28;20271;-63
2023/03/23 07:47:06;;;;;;;;;;;;;;;;;;5115494;28;19930;-64
2023/03/23 07:49:33;;;;;;;;;;;;;;;;;;5115508;28;19933;-64
2023/03/23 07:52:01;;;;;;;;;;;;;;;;;;5097021;28;20431;-63
2023/03/23 07:54:27;;;;;;;;;;;;;;;;;;5115491;28;20006;-64
2023/03/23 07:56:53;;;;;;;;;;;;;;;;;;5115476;28;20319;-63
2023/03/23 07:59:19;;;;;;;;;;;;;;;;;;5115249;28;19968;-62
2023/03/23 08:01:44;;;;;;;;;;;;;;;;;;5109335;28;19973;-63
2023/03/23 08:04:10;;;;;;;;;;;;;;;;;;5095075;27;19924;-64
2023/03/23 08:06:36;;;;;;;;;;;;;;;;;;5101252;27;19928;-64
2023/03/23 08:09:08;;;;;;;;;;;;;;;;;;5096902;28;19931;-64
2023/03/23 08:11:34;;;;;;;;;;;;;;;;;;5114296;28;19972;-63
2023/03/23 08:14:00;;;;;;;;;;;;;;;;;;5114937;28;20381;-64
2023/03/23 08:16:25;;;;;;;;;;;;;;;;;;5115378;28;19920;-63
2023/03/23 08:18:51;;;;;;;;;;;;;;;;;;5114219;28;20246;-63
2023/03/23 08:21:17;;;;;;;;;;;;;;;;;;5115134;28;19924;-64
2023/03/23 08:23:43;;;;;;;;;;;;;;;;;;5114315;28;19919;-63
2023/03/23 08:26:09;;;;;;;;;;;;;;;;;;5115182;28;20070;-63
2023/03/23 08:28:35;;;;;;;;;;;;;;;;;;5113465;28;19919;-63
2023/03/23 08:31:01;;;;;;;;;;;;;;;;;;5114435;28;20307;-64
2023/03/23 08:33:27;;;;;;;;;;;;;;;;;;5114779;28;19923;-63
2023/03/23 08:35:53;;;;;;;;;;;;;;;;;;5114724;28;20038;-62
2023/03/23 08:38:21;;;;;;;;;;;;;;;;;;5096338;28;20007;-63
2023/03/23 08:40:47;;;;;;;;;;;;;;;;;;5113597;28;20376;-64
2023/03/23 08:43:13;;;;;;;;;;;;;;;;;;5114396;28;19929;-63
2023/03/23 08:45:39;;;;;;;;;;;;;;;;;;5114413;28;19924;-63
2023/03/23 08:48:07;;;;;;;;;;;;;;;;;;5109804;28;19924;-63
2023/03/23 08:50:33;;;;;;;;;;;;;;;;;;5093967;28;19920;-64
2023/03/23 08:52:59;;;;;;;;;;;;;;;;;;5093973;28;20018;-64
2023/03/23 08:55:26;;;;;;;;;;;;;;;;;;5104118;28;19927;-64
2023/03/23 08:57:52;;;;;;;;;;;;;;;;;;5113823;28;19928;-64
2023/03/23 09:00:17;;;;;;;;;;;;;;;;;;5113831;28;20696;-64
2023/03/23 09:02:43;;;;;;;;;;;;;;;;;;5094839;28;19920;-64
2023/03/23 09:05:10;;;;;;;;;;;;;;;;;;5095728;28;19972;-64
2023/03/23 09:07:36;;;;;;;;;;;;;;;;;;5092223;28;20377;-64
2023/03/23 09:10:02;;;;;;;;;;;;;;;;;;5087660;28;19942;-64
2023/03/23 09:12:29;;;;;;;;;;;;;;;;;;5077482;28;19928;-64
2023/03/23 09:14:55;;;;;;;;;;;;;;;;;;5093252;28;19970;-64
2023/03/23 09:17:21;;;;;;;;;;;;;;;;;;5102767;28;19985;-63
2023/03/23 09:19:47;;;;;;;;;;;;;;;;;;5084601;22;19928;-66
2023/03/23 09:22:15;;;;;;;;;;;;;;;;;;5050471;28;19932;-67
2023/03/23 09:24:41;;;;;;;;;;;;;;;;;;5052864;28;20420;-66
2023/03/23 09:27:07;;;;;;;;;;;;;;;;;;5048857;28;19921;-67
2023/03/23 09:29:35;;;;;;;;;;;;;;;;;;5041876;28;21384;-67
2023/03/23 09:32:01;;;;;;;;;;;;;;;;;;5049171;28;19975;-66
2023/03/23 09:34:29;;;;;;;;;;;;;;;;;;5051000;28;20668;-67
2023/03/23 09:36:55;;;;;;;;;;;;;;;;;;5053390;28;19959;-67
2023/03/23 09:39:20;;;;;;;;;;;;;;;;;;5034468;28;19963;-68
2023/03/23 09:41:48;;;;;;;;;;;;;;;;;;5046679;28;19935;-67
2023/03/23 09:44:14;;;;;;;;;;;;;;;;;;5050127;28;20046;-68
2023/03/23 09:46:40;;;;;;;;;;;;;;;;;;5049466;28;19935;-68
2023/03/23 09:49:06;;;;;;;;;;;;;;;;;;5052028;28;20011;-67
2023/03/23 09:51:32;;;;;;;;;;;;;;;;;;5049408;28;20019;-68
2023/03/23 09:53:58;;;;;;;;;;;;;;;;;;5051839;28;19955;-67
2023/03/23 09:56:27;;;;;;;;;;;;;;;;;;5051581;28;19927;-67
2023/03/23 09:58:52;;;;;;;;;;;;;;;;;;5051703;28;20342;-67
2023/03/23 10:01:18;;;;;;;;;;;;;;;;;;5051922;28;19931;-68
2023/03/23 10:03:44;;;;;;;;;;;;;;;;;;5051870;28;19952;-67
2023/03/23 10:06:10;;;;;;;;;;;;;;;;;;5049258;28;19964;-68
2023/03/23 10:08:37;;;;;;;;;;;;;;;;;;5050488;28;20318;-67
2023/03/23 10:11:03;;;;;;;;;;;;;;;;;;5051639;28;20003;-67
2023/03/23 10:13:29;;;;;;;;;;;;;;;;;;5051704;28;20353;-67
2023/03/23 10:15:55;;;;;;;;;;;;;;;;;;5051565;28;19970;-68
2023/03/23 10:18:21;;;;;;;;;;;;;;;;;;5051616;28;19929;-67
2023/03/23 10:20:47;;;;;;;;;;;;;;;;;;5049422;28;19924;-67
2023/03/23 10:23:13;;;;;;;;;;;;;;;;;;5033817;28;20370;-68
2023/03/23 10:25:39;;;;;;;;;;;;;;;;;;5051390;28;19932;-68
2023/03/23 10:28:05;;;;;;;;;;;;;;;;;;5051417;28;20282;-67
2023/03/23 10:30:31;;;;;;;;;;;;;;;;;;5051241;28;19947;-68
2023/03/23 10:32:57;;;;;;;;;;;;;;;;;;5049231;28;19967;-68
2023/03/23 10:35:23;;;;;;;;;;;;;;;;;;5038725;28;19924;-68
2023/03/23 10:37:49;;;;;;;;;;;;;;;;;;5045935;28;20042;-68
2023/03/23 10:40:15;;;;;;;;;;;;;;;;;;5048467;28;19925;-68
2023/03/23 10:42:42;;;;;;;;;;;;;;;;;;5048725;28;19924;-67
2023/03/23 10:45:08;;;;;;;;;;;;;;;;;;5046344;28;19964;-68
2023/03/23 10:47:34;;;;;;;;;;;;;;;;;;5053083;28;19960;-68
2023/03/23 10:50:01;;;;;;;;;;;;;;;;;;5053103;28;20500;-67
2023/03/23 10:52:27;;;;;;;;;;;;;;;;;;5049601;28;20011;-67
2023/03/23 10:54:53;;;;;;;;;;;;;;;;;;5049393;28;20007;-68
2023/03/23 10:57:20;;;;;;;;;;;;;;;;;;5051733;28;19924;-68
2023/03/23 10:59:46;;;;;;;;;;;;;;;;;;5035000;28;20321;-68
2023/03/23 11:02:13;;;;;;;;;;;;;;;;;;5025184;28;19924;-67
2023/03/23 11:04:39;;;;;;;;;;;;;;;;;;5053093;28;19940;-67
2023/03/23 11:07:05;;;;;;;;;;;;;;;;;;5051204;28;19929;-68
2023/03/23 11:09:31;;;;;;;;;;;;;;;;;;5049025;28;20491;-69
2023/03/23 11:11:57;;;;;;;;;;;;;;;;;;5053732;28;19925;-67
2023/03/23 11:14:22;;;;;;;;;;;;;;;;;;5053937;28;19975;-68
2023/03/23 11:16:48;;;;;;;;;;;;;;;;;;5049206;28;19933;-68
2023/03/23 11:19:14;;;;;;;;;;;;;;;;;;5050067;28;19929;-67
2023/03/23 11:21:41;;;;;;;;;;;;;;;;;;5052941;28;20275;-68
2023/03/23 11:24:07;;;;;;;;;;;;;;;;;;5053900;28;19928;-68
2023/03/23 11:26:33;;;;;;;;;;;;;;;;;;5052872;28;19929;-68
2023/03/23 11:28:59;;;;;;;;;;;;;;;;;;5049071;28;19921;-67
2023/03/23 11:31:25;;;;;;;;;;;;;;;;;;5044001;28;20015;-67
2023/03/23 11:33:51;;;;;;;;;;;;;;;;;;5041885;28;19935;-67
2023/03/23 11:36:17;;;;;;;;;;;;;;;;;;5042241;28;19921;-67
2023/03/23 11:38:44;;;;;;;;;;;;;;;;;;5048155;28;19974;-67
2023/03/23 11:41:10;;;;;;;;;;;;;;;;;;5034710;28;20299;-68
2023/03/23 11:43:36;;;;;;;;;;;;;;;;;;5041204;28;19927;-67
2023/03/23 11:46:02;;;;;;;;;;;;;;;;;;5054052;28;20317;-67
2023/03/23 11:48:28;;;;;;;;;;;;;;;;;;5053250;28;19921;-67
2023/03/23 11:50:53;;;;;;;;;;;;;;;;;;5052307;28;19929;-67
2023/03/23 11:53:19;;;;;;;;;;;;;;;;;;5051836;28;19931;-66
2023/03/23 11:55:45;;;;;;;;;;;;;;;;;;5053749;28;20424;-67
2023/03/23 11:58:12;;;;;;;;;;;;;;;;;;5042381;28;19921;-67
2023/03/23 12:00:38;;;;;;;;;;;;;;;;;;5053862;28;20020;-66
2023/03/23 12:03:04;;;;;;;;;;;;;;;;;;5053676;28;20003;-67
2023/03/23 12:05:30;;;;;;;;;;;;;;;;;;5051847;28;20004;-66
2023/03/23 12:07:56;;;;;;;;;;;;;;;;;;5052138;28;20294;-67
2023/03/23 12:10:22;;;;;;;;;;;;;;;;;;5053658;28;19921;-66
2023/03/23 12:12:49;;;;;;;;;;;;;;;;;;5053577;28;20409;-67
2023/03/23 12:15:15;;;;;;;;;;;;;;;;;;5053566;28;20362;-67
2023/03/23 12:17:40;;;;;;;;;;;;;;;;;;5053611;28;19966;-67
2023/03/23 12:20:12;;;;;;;;;;;;;;;;;;5052019;28;19925;-67
2023/03/23 12:22:38;;;;;;;;;;;;;;;;;;5052380;28;19925;-67
2023/03/23 12:25:05;;;;;;;;;;;;;;;;;;5053577;28;20271;-67
2023/03/23 12:27:31;;;;;;;;;;;;;;;;;;5053489;28;19921;-67
2023/03/23 12:29:57;;;;;;;;;;;;;;;;;;5053566;28;19924;-67
2023/03/23 12:32:23;;;;;;;;;;;;;;;;;;5051970;28;19928;-67
2023/03/23 12:34:49;;;;;;;;;;;;;;;;;;5049595;28;20079;-67
2023/03/23 12:37:15;;;;;;;;;;;;;;;;;;5053052;28;19968;-66
2023/03/23 12:39:41;;;;;;;;;;;;;;;;;;5050695;28;20255;-67
2023/03/23 12:42:07;;;;;;;;;;;;;;;;;;5048237;28;19937;-66
2023/03/23 12:44:33;;;;;;;;;;;;;;;;;;5044040;28;19921;-67
2023/03/23 12:46:59;;;;;;;;;;;;;;;;;;5048395;28;20535;-67
2023/03/23 12:49:25;;;;;;;;;;;;;;;;;;5048496;28;19924;-67
2023/03/23 12:51:51;;;;;;;;;;;;;;;;;;5051388;28;20350;-67
2023/03/23 12:54:17;;;;;;;;;;;;;;;;;;5050452;28;19921;-67
2023/03/23 12:56:43;;;;;;;;;;;;;;;;;;5037224;28;19925;-67
2023/03/23 12:59:09;;;;;;;;;;;;;;;;;;5033858;28;19921;-66
2023/03/23 13:01:35;;;;;;;;;;;;;;;;;;5048040;28;20011;-67
2023/03/23 13:04:01;;;;;;;;;;;;;;;;;;5048532;28;19924;-67
2023/03/23 13:06:29;;;;;;;;;;;;;;;;;;5039650;28;19921;-67
2023/03/23 13:08:56;;;;;;;;;;;;;;;;;;5039686;28;19929;-66
2023/03/23 13:11:22;;;;;;;;;;;;;;;;;;5046753;28;19925;-66
2023/03/23 13:13:47;;;;;;;;;;;;;;;;;;5050096;28;20690;-66
2023/03/23 13:16:13;;;;;;;;;;;;;;;;;;5051806;28;19924;-65
2023/03/23 13:18:39;;;;;;;;;;;;;;;;;;5052187;28;19925;-66
2023/03/23 13:21:05;;;;;;;;;;;;;;;;;;5052478;28;19920;-66
2023/03/23 13:23:31;;;;;;;;;;;;;;;;;;5050079;28;20511;-66
2023/03/23 13:25:57;;;;;;;;;;;;;;;;;;5049155;28;19925;-66
2023/03/23 13:28:26;;;;;;;;;;;;;;;;;;5052389;28;19943;-66
2023/03/23 13:30:52;;;;;;;;;;;;;;;;;;5052348;28;19924;-66
2023/03/23 13:33:18;;;;;;;;;;;;;;;;;;5049815;28;19921;-62
2023/03/23 13:35:44;;;;;;;;;;;;;;;;;;5051169;28;19925;-63
2023/03/23 13:38:10;;;;;;;;;;;;;;;;;;5052299;28;19928;-63
2023/03/23 13:40:36;;;;;;;;;;;;;;;;;;5050307;28;19921;-63
2023/03/23 13:43:04;;;;;;;;;;;;;;;;;;5051881;28;19925;-63
2023/03/23 13:45:30;;;;;;;;;;;;;;;;;;5052036;28;20003;-63
2023/03/23 13:47:56;;;;;;;;;;;;;;;;;;5049742;28;19920;-63
2023/03/23 13:50:22;;;;;;;;;;;;;;;;;;5047501;28;19927;-64
2023/03/23 13:52:48;;;;;;;;;;;;;;;;;;5045271;28;19920;-63
2023/03/23 13:55:14;;;;;;;;;;;;;;;;;;5047093;28;20006;-63
2023/03/23 13:57:40;;;;;;;;;;;;;;;;;;5051567;28;19921;-63
2023/03/23 14:00:06;;;;;;;;;;;;;;;;;;5049718;28;19929;-63
2023/03/23 14:02:32;;;;;;;;;;;;;;;;;;5049775;28;19924;-63
2023/03/23 14:04:58;;;;;;;;;;;;;;;;;;5049853;28;19921;-63
2023/03/23 14:07:24;;;;;;;;;;;;;;;;;;5050475;28;19927;-63
2023/03/23 14:09:50;;;;;;;;;;;;;;;;;;5049195;28;20008;-63
2023/03/23 14:12:15;;;;;;;;;;;;;;;;;;5050784;28;19951;-63
2023/03/23 14:14:41;;;;;;;;;;;;;;;;;;5049688;28;19931;-63
2023/03/23 14:17:07;;;;;;;;;;;;;;;;;;5050935;28;20358;-63
2023/03/23 14:19:33;;;;;;;;;;;;;;;;;;5051046;28;19932;-63
2023/03/23 14:21:59;;;;;;;;;;;;;;;;;;5052929;28;19925;-63
2023/03/23 14:24:25;;;;;;;;;;;;;;;;;;5053401;28;19920;-63
2023/03/23 14:26:54;;;;;;;;;;;;;;;;;;5053458;28;19975;-63
2023/03/23 14:29:20;;;;;;;;;;;;;;;;;;5053486;28;20038;-63
2023/03/23 14:31:46;;;;;;;;;;;;;;;;;;5050426;28;20647;-63
2023/03/23 14:34:12;;;;;;;;;;;;;;;;;;5049180;28;19921;-62
2023/03/23 14:36:38;;;;;;;;;;;;;;;;;;5051974;28;19931;-63
2023/03/23 14:39:05;;;;;;;;;;;;;;;;;;5053831;28;19921;-62
2023/03/23 14:41:31;;;;;;;;;;;;;;;;;;5055756;28;19991;-63
2023/03/23 14:44:00;;;;;;;;;;;;;;;;;;5055450;28;20370;-63
2023/03/23 14:46:26;;;;;;;;;;;;;;;;;;5053407;28;19932;-67
2023/03/23 14:48:51;;;;;;;;;;;;;;;;;;5053324;28;20565;-67
2023/03/23 14:51:17;;;;;;;;;;;;;;;;;;5050238;28;20010;-65
2023/03/23 14:53:43;;;;;;;;;;;;;;;;;;5054478;28;20352;-66
2023/03/23 14:56:09;;;;;;;;;;;;;;;;;;5040626;28;19927;-67
2023/03/23 14:58:35;;;;;;;;;;;;;;;;;;5047437;28;19924;-65
2023/03/23 15:01:01;;;;;;;;;;;;;;;;;;5048701;28;19927;-65
2023/03/23 15:03:27;;;;;;;;;;;;;;;;;;5053634;28;19924;-66
2023/03/23 15:05:53;;;;;;;;;;;;;;;;;;5047831;28;20667;-62
2023/03/23 15:08:19;;;;;;;;;;;;;;;;;;5055058;28;19932;-64
2023/03/23 15:10:45;;;;;;;;;;;;;;;;;;5051601;28;19973;-62
2023/03/23 15:13:11;;;;;;;;;;;;;;;;;;5053170;28;19921;-62
2023/03/23 15:15:36;;;;;;;;;;;;;;;;;;5054922;28;19947;-62
2023/03/23 15:18:02;;;;;;;;;;;;;;;;;;5035598;28;19924;-62
2023/03/23 15:20:28;;;;;;;;;;;;;;;;;;5046087;28;19936;-62
2023/03/23 15:22:54;;;;;;;;;;;;;;;;;;5048513;28;20015;-63
2023/03/23 15:25:20;;;;;;;;;;;;;;;;;;5052984;28;20012;-63
2023/03/23 15:27:46;;;;;;;;;;;;;;;;;;5055390;28;20338;-63
2023/03/23 15:30:12;;;;;;;;;;;;;;;;;;5045772;28;19925;-63
2023/03/23 15:32:38;;;;;;;;;;;;;;;;;;5052449;28;19928;-63
2023/03/23 15:35:04;;;;;;;;;;;;;;;;;;5053552;28;20122;-63
2023/03/23 15:37:30;;;;;;;;;;;;;;;;;;5054129;28;19925;-61
2023/03/23 15:39:56;;;;;;;;;;;;;;;;;;5054524;28;19927;-62
2023/03/23 15:42:22;;;;;;;;;;;;;;;;;;5057641;28;19920;-62
2023/03/23 15:44:48;;;;;;;;;;;;;;;;;;5054500;28;19951;-62
2023/03/23 15:47:14;;;;;;;;;;;;;;;;;;5051411;28;19925;-62
2023/03/23 15:49:40;;;;;;;;;;;;;;;;;;5054066;28;20038;-62
2023/03/23 15:52:06;;;;;;;;;;;;;;;;;;5055036;28;19951;-62
2023/03/23 15:54:32;;;;;;;;;;;;;;;;;;5051287;28;19931;-62
2023/03/23 15:56:58;;;;;;;;;;;;;;;;;;5052447;28;19925;-62
2023/03/23 15:59:24;;;;;;;;;;;;;;;;;;5054836;28;19927;-62
2023/03/23 16:01:49;;;;;;;;;;;;;;;;;;5050155;28;19964;-62
2023/03/23 16:04:15;;;;;;;;;;;;;;;;;;5036511;28;19944;-62
2023/03/23 16:06:41;;;;;;;;;;;;;;;;;;5054601;28;19920;-62
2023/03/23 16:09:09;;;;;;;;;;;;;;;;;;5054906;28;19921;-62
2023/03/23 16:11:35;;;;;;;;;;;;;;;;;;5053794;28;19970;-62
2023/03/23 16:14:01;;;;;;;;;;;;;;;;;;5051921;28;19924;-62
2023/03/23 16:16:27;;;;;;;;;;;;;;;;;;5053967;28;19969;-62
2023/03/23 16:18:53;;;;;;;;;;;;;;;;;;5054180;28;19948;-62
2023/03/23 16:21:19;;;;;;;;;;;;;;;;;;5050521;28;20389;-62
2023/03/23 16:23:45;;;;;;;;;;;;;;;;;;5052486;28;19921;-62
2023/03/23 16:26:11;;;;;;;;;;;;;;;;;;5051821;28;20761;-63
2023/03/23 16:28:37;;;;;;;;;;;;;;;;;;5051566;28;20125;-62
2023/03/23 16:31:03;;;;;;;;;;;;;;;;;;5052187;28;19929;-62
2023/03/23 16:33:29;;;;;;;;;;;;;;;;;;5049702;28;20579;-62
2023/03/23 16:35:56;;;;;;;;;;;;;;;;;;5038106;28;19932;-62
2023/03/23 16:38:22;;;;;;;;;;;;;;;;;;5033446;28;19948;-62